Selenita — HBY5135 — position and weather

sailwx.info

Track history (hours):
 
Tides and Currents Weather Stations Pressure Air Temp Water Temp Dewpoint Dewpoint Depression Visibility Wind Speed Wind Dir Waves Ship Positions

Selenita

Last reported at 2017-Oct-17 09:44 UTC. Time now 2017-Oct-18 20:09 UTC.
Position N 37°24' W 001°34'.

Length 14 m.

Type: Sailing vessel. MMSI: 269110760.

Date/timePositionNaut miles runAvg speedWind from/ knotsBaromVisibWave heightAir tempDewpointWater temp
2017-Oct-17 09:44N 37°24' W 001°34'0 0.0
2017-Oct-17 09:26N 37°24' W 001°34'0 0.0
2017-Oct-17 08:55N 37°24' W 001°34'0 0.0
2017-Oct-17 08:26N 37°24' W 001°34'0 0.0
2017-Oct-17 07:56N 37°24' W 001°34'0 0.0
2017-Oct-17 07:25N 37°24' W 001°34'0 0.0
2017-Oct-17 06:56N 37°24' W 001°34'0 0.0
2017-Oct-17 06:25N 37°24' W 001°34'0 0.0
2017-Oct-17 05:55N 37°24' W 001°34'0 0.0
2017-Oct-17 05:25N 37°24' W 001°34'0 0.0
2017-Oct-17 04:55N 37°24' W 001°34'0 0.0
2017-Oct-17 04:25N 37°24' W 001°34'0 0.0
2017-Oct-17 03:56N 37°24' W 001°34'0 0.0
2017-Oct-17 03:13N 37°24' W 001°34'0 0.0
2017-Oct-17 02:56N 37°24' W 001°34'0 0.0
2017-Oct-17 02:26N 37°24' W 001°34'0 0.0
2017-Oct-17 01:56N 37°24' W 001°34'0 0.0
2017-Oct-17 01:25N 37°24' W 001°34'0 0.0
2017-Oct-17 00:55N 37°24' W 001°34'0 0.0
2017-Oct-17 00:25N 37°24' W 001°34'0 0.0
2017-Oct-16 23:56N 37°24' W 001°34'0 0.0
2017-Oct-16 23:25N 37°24' W 001°34'0 0.0
2017-Oct-16 22:56N 37°24' W 001°34'0 0.0
2017-Oct-16 22:26N 37°24' W 001°34'0 0.0
2017-Oct-16 21:56N 37°24' W 001°34'0 0.0
2017-Oct-16 21:25N 37°24' W 001°34'0 0.0
2017-Oct-16 20:56N 37°24' W 001°34'0 0.0
2017-Oct-16 20:25N 37°24' W 001°34'0 0.0
2017-Oct-16 19:56N 37°24' W 001°34'0 0.0
2017-Oct-16 19:26N 37°24' W 001°34'0 0.0
2017-Oct-16 18:55N 37°24' W 001°34'0 0.0
2017-Oct-16 18:26N 37°24' W 001°34'0 0.0
2017-Oct-16 17:55N 37°24' W 001°34'0 0.0
2017-Oct-16 17:19N 37°24' W 001°34'0 0.0
2017-Oct-16 16:55N 37°24' W 001°34'0 0.0
2017-Oct-16 16:25N 37°24' W 001°34'0 0.0
2017-Oct-16 15:56N 37°24' W 001°34'0 0.0
2017-Oct-16 15:26N 37°24' W 001°34'0 0.0
2017-Oct-16 14:56N 37°24' W 001°34'0 0.0
2017-Oct-16 13:55N 37°24' W 001°34'0 0.0
2017-Oct-16 13:26N 37°24' W 001°34'46 2.0
2017-Oct-15 14:00N 37°42' W 000°41'3 6.2
2017-Oct-15 13:30N 37°45' W 000°41'3 5.5
2017-Oct-15 13:00N 37°47' W 000°42'4 7.5
2017-Oct-15 12:30N 37°51' W 000°41'5 7.6
2017-Oct-15 11:54N 37°56' W 000°41'3 6.5
2017-Oct-15 11:31N 37°58' W 000°41'0 0.7
2017-Oct-15 11:00N 37°58' W 000°41'0 0.3
2017-Oct-15 10:25N 37°58' W 000°41'0 0.0
2017-Oct-15 09:49N 37°58' W 000°41'0 0.0
2017-Oct-15 09:22N 37°58' W 000°41'0 0.0
2017-Oct-15 08:58N 37°58' W 000°41'0 0.0
2017-Oct-15 08:28N 37°58' W 000°41'0 0.0
2017-Oct-15 07:55N 37°58' W 000°41'0 0.0
2017-Oct-15 07:25N 37°58' W 000°41'0 0.0
2017-Oct-15 06:58N 37°58' W 000°41'0 0.0
2017-Oct-15 06:28N 37°58' W 000°41'0 0.0
2017-Oct-15 05:58N 37°58' W 000°41'0 0.0
2017-Oct-15 05:28N 37°58' W 000°41'0 0.0
2017-Oct-15 04:55N 37°58' W 000°41'0 0.0
2017-Oct-15 04:25N 37°58' W 000°41'0 0.0
2017-Oct-15 03:58N 37°58' W 000°41'0 0.0
2017-Oct-15 03:01N 37°58' W 000°41'0 0.0
2017-Oct-15 02:40N 37°58' W 000°41'0 0.0
2017-Oct-15 02:25N 37°58' W 000°41'0 0.0
2017-Oct-15 01:58N 37°58' W 000°41'0 0.0
2017-Oct-15 01:25N 37°58' W 000°41'0 0.0
2017-Oct-15 00:52N 37°58' W 000°41'0 0.0
2017-Oct-15 00:28N 37°58' W 000°41'0 0.0
2017-Oct-14 23:58N 37°58' W 000°41'0 0.0
2017-Oct-14 23:28N 37°58' W 000°41'0 0.0
2017-Oct-14 22:58N 37°58' W 000°41'0 0.0
2017-Oct-14 22:25N 37°58' W 000°41'0 0.0
2017-Oct-14 21:52N 37°58' W 000°41'0 0.0
2017-Oct-14 21:28N 37°58' W 000°41'0 0.0
2017-Oct-14 20:55N 37°58' W 000°41'0 0.0
2017-Oct-14 20:19N 37°58' W 000°41'0 0.0
2017-Oct-14 19:55N 37°58' W 000°41'0 0.0
2017-Oct-14 19:25N 37°58' W 000°41'0 0.0
2017-Oct-14 18:55N 37°58' W 000°41'0 0.0
2017-Oct-14 18:22N 37°58' W 000°41'0 0.0
2017-Oct-14 17:46N 37°58' W 000°41'0 0.0
2017-Oct-14 17:16N 37°58' W 000°41'0 0.0
2017-Oct-14 16:58N 37°58' W 000°41'0 0.0
2017-Oct-14 16:10N 37°58' W 000°41'0 0.0
2017-Oct-14 15:58N 37°58' W 000°41'0 0.0
2017-Oct-14 15:19N 37°58' W 000°41'0 0.0
2017-Oct-14 14:49N 37°58' W 000°41'0 0.0
2017-Oct-14 14:25N 37°58' W 000°41'0 0.0
2017-Oct-14 13:58N 37°58' W 000°41'0 0.8
2017-Oct-14 13:28N 37°58' W 000°41'  
2017-Oct-10 13:48N 39°24' E 002°34'1 4.6
2017-Oct-10 13:30N 39°24' E 002°35'1 3.0
2017-Oct-10 13:00N 39°25' E 002°36'3 5.8
2017-Oct-10 12:30N 39°28' E 002°35'3 5.8
2017-Oct-10 12:00N 39°31' E 002°34'3 5.8
2017-Oct-10 11:30N 39°31' E 002°38'2 3.2
2017-Oct-10 11:00N 39°33' E 002°39'1 0.1
2017-Oct-09 21:01N 39°34' E 002°38'0 0.0
2017-Oct-09 20:58N 39°34' E 002°38'0 0.0
2017-Oct-09 20:28N 39°34' E 002°38'0 0.0
2017-Oct-09 19:58N 39°34' E 002°38'0 0.0
2017-Oct-09 19:28N 39°34' E 002°38'0 0.0
2017-Oct-09 18:58N 39°34' E 002°38'0 0.0
2017-Oct-09 18:28N 39°34' E 002°38'0 0.0
2017-Oct-09 17:58N 39°34' E 002°38'0 0.0
2017-Oct-09 17:28N 39°34' E 002°38'0 0.0
2017-Oct-09 16:58N 39°34' E 002°38'0 0.0
2017-Oct-09 16:28N 39°34' E 002°38'0 0.0
2017-Oct-09 15:58N 39°34' E 002°38'0 0.0
2017-Oct-09 15:28N 39°34' E 002°38'0 0.0
2017-Oct-09 14:58N 39°34' E 002°38'0 0.0
2017-Oct-09 14:28N 39°34' E 002°38'0 0.0
2017-Oct-09 13:58N 39°34' E 002°38'0 0.0
2017-Oct-09 13:28N 39°34' E 002°38'0 0.0
2017-Oct-09 12:58N 39°34' E 002°38'0 0.0
2017-Oct-09 12:28N 39°34' E 002°38'0 0.0
2017-Oct-09 11:58N 39°34' E 002°38'0 0.0
2017-Oct-09 11:28N 39°34' E 002°38'0 0.0
2017-Oct-09 10:58N 39°34' E 002°38'0 0.0
2017-Oct-09 10:28N 39°34' E 002°38'0 0.0
2017-Oct-09 09:58N 39°34' E 002°38'0 0.0
2017-Oct-09 09:28N 39°34' E 002°38'0 0.0
2017-Oct-09 08:58N 39°34' E 002°38'0 0.0
2017-Oct-09 08:25N 39°34' E 002°38'0 0.0
2017-Oct-08 16:10N 39°34' E 002°38'0 0.3
2017-Oct-08 16:00N 39°34' E 002°38'1 0.5
2017-Oct-08 13:33N 39°34' E 002°40'0 0.0
2017-Oct-08 13:30N 39°34' E 002°40'0 0.0
2017-Oct-08 13:00N 39°34' E 002°40'0 0.0
2017-Oct-08 12:30N 39°34' E 002°40'0 0.0
2017-Oct-08 12:00N 39°34' E 002°40'0 0.0
2017-Oct-08 11:30N 39°34' E 002°39'3 5.0
2017-Oct-08 11:00N 39°32' E 002°37'3 7.1
2017-Oct-08 10:30N 39°29' E 002°34'3 0.2
2017-Oct-07 13:48N 39°27' E 002°32'2 7.5
2017-Oct-07 13:30N 39°27' E 002°34'1 2.5
2017-Oct-07 13:00N 39°27' E 002°36'2 4.2
2017-Oct-07 12:30N 39°29' E 002°37'3 5.2
2017-Oct-07 12:00N 39°32' E 002°38'2 4.0
2017-Oct-07 11:30N 39°34' E 002°38'0 0.6
2017-Oct-07 10:58N 39°34' E 002°38'0 0.0
2017-Oct-07 10:25N 39°34' E 002°38'0 0.0
2017-Oct-07 09:58N 39°34' E 002°38'  
Track history (hours):
 
Tides and Currents Weather Stations Pressure Air Temp Water Temp Dewpoint Dewpoint Depression Visibility Wind Speed Wind Dir Waves Ship Positions

Selenita

Last reported at 2017-Oct-17 09:44 UTC. Time now 2017-Oct-18 20:09 UTC.
Position N 37°24' W 001°34'.

Length 14 m.

Type: Sailing vessel. MMSI: 269110760.

Date/timePositionNaut miles runAvg speedWind from/ knotsBaromVisibWave heightAir tempDewpointWater temp
2017-Oct-17 09:44N 37°24' W 001°34'0 0.0
2017-Oct-17 09:26N 37°24' W 001°34'0 0.0
2017-Oct-17 08:55N 37°24' W 001°34'0 0.0
2017-Oct-17 08:26N 37°24' W 001°34'0 0.0
2017-Oct-17 07:56N 37°24' W 001°34'0 0.0
2017-Oct-17 07:25N 37°24' W 001°34'0 0.0
2017-Oct-17 06:56N 37°24' W 001°34'0 0.0
2017-Oct-17 06:25N 37°24' W 001°34'0 0.0
2017-Oct-17 05:55N 37°24' W 001°34'0 0.0
2017-Oct-17 05:25N 37°24' W 001°34'0 0.0
2017-Oct-17 04:55N 37°24' W 001°34'0 0.0
2017-Oct-17 04:25N 37°24' W 001°34'0 0.0
2017-Oct-17 03:56N 37°24' W 001°34'0 0.0
2017-Oct-17 03:13N 37°24' W 001°34'0 0.0
2017-Oct-17 02:56N 37°24' W 001°34'0 0.0
2017-Oct-17 02:26N 37°24' W 001°34'0 0.0
2017-Oct-17 01:56N 37°24' W 001°34'0 0.0
2017-Oct-17 01:25N 37°24' W 001°34'0 0.0
2017-Oct-17 00:55N 37°24' W 001°34'0 0.0
2017-Oct-17 00:25N 37°24' W 001°34'0 0.0
2017-Oct-16 23:56N 37°24' W 001°34'0 0.0
2017-Oct-16 23:25N 37°24' W 001°34'0 0.0
2017-Oct-16 22:56N 37°24' W 001°34'0 0.0
2017-Oct-16 22:26N 37°24' W 001°34'0 0.0
2017-Oct-16 21:56N 37°24' W 001°34'0 0.0
2017-Oct-16 21:25N 37°24' W 001°34'0 0.0
2017-Oct-16 20:56N 37°24' W 001°34'0 0.0
2017-Oct-16 20:25N 37°24' W 001°34'0 0.0
2017-Oct-16 19:56N 37°24' W 001°34'0 0.0
2017-Oct-16 19:26N 37°24' W 001°34'0 0.0
2017-Oct-16 18:55N 37°24' W 001°34'0 0.0
2017-Oct-16 18:26N 37°24' W 001°34'0 0.0
2017-Oct-16 17:55N 37°24' W 001°34'0 0.0
2017-Oct-16 17:19N 37°24' W 001°34'0 0.0
2017-Oct-16 16:55N 37°24' W 001°34'0 0.0
2017-Oct-16 16:25N 37°24' W 001°34'0 0.0
2017-Oct-16 15:56N 37°24' W 001°34'0 0.0
2017-Oct-16 15:26N 37°24' W 001°34'0 0.0
2017-Oct-16 14:56N 37°24' W 001°34'0 0.0
2017-Oct-16 13:55N 37°24' W 001°34'0 0.0
2017-Oct-16 13:26N 37°24' W 001°34'46 2.0
2017-Oct-15 14:00N 37°42' W 000°41'3 6.2
2017-Oct-15 13:30N 37°45' W 000°41'3 5.5
2017-Oct-15 13:00N 37°47' W 000°42'4 7.5
2017-Oct-15 12:30N 37°51' W 000°41'5 7.6
2017-Oct-15 11:54N 37°56' W 000°41'3 6.5
2017-Oct-15 11:31N 37°58' W 000°41'0 0.7
2017-Oct-15 11:00N 37°58' W 000°41'0 0.3
2017-Oct-15 10:25N 37°58' W 000°41'0 0.0
2017-Oct-15 09:49N 37°58' W 000°41'0 0.0
2017-Oct-15 09:22N 37°58' W 000°41'0 0.0
2017-Oct-15 08:58N 37°58' W 000°41'0 0.0
2017-Oct-15 08:28N 37°58' W 000°41'0 0.0
2017-Oct-15 07:55N 37°58' W 000°41'0 0.0
2017-Oct-15 07:25N 37°58' W 000°41'0 0.0
2017-Oct-15 06:58N 37°58' W 000°41'0 0.0
2017-Oct-15 06:28N 37°58' W 000°41'0 0.0
2017-Oct-15 05:58N 37°58' W 000°41'0 0.0
2017-Oct-15 05:28N 37°58' W 000°41'0 0.0
2017-Oct-15 04:55N 37°58' W 000°41'0 0.0
2017-Oct-15 04:25N 37°58' W 000°41'0 0.0
2017-Oct-15 03:58N 37°58' W 000°41'0 0.0
2017-Oct-15 03:01N 37°58' W 000°41'0 0.0
2017-Oct-15 02:40N 37°58' W 000°41'0 0.0
2017-Oct-15 02:25N 37°58' W 000°41'0 0.0
2017-Oct-15 01:58N 37°58' W 000°41'0 0.0
2017-Oct-15 01:25N 37°58' W 000°41'0 0.0
2017-Oct-15 00:52N 37°58' W 000°41'0 0.0
2017-Oct-15 00:28N 37°58' W 000°41'0 0.0
2017-Oct-14 23:58N 37°58' W 000°41'0 0.0
2017-Oct-14 23:28N 37°58' W 000°41'0 0.0
2017-Oct-14 22:58N 37°58' W 000°41'0 0.0
2017-Oct-14 22:25N 37°58' W 000°41'0 0.0
2017-Oct-14 21:52N 37°58' W 000°41'0 0.0
2017-Oct-14 21:28N 37°58' W 000°41'0 0.0
2017-Oct-14 20:55N 37°58' W 000°41'0 0.0
2017-Oct-14 20:19N 37°58' W 000°41'0 0.0
2017-Oct-14 19:55N 37°58' W 000°41'0 0.0
2017-Oct-14 19:25N 37°58' W 000°41'0 0.0
2017-Oct-14 18:55N 37°58' W 000°41'0 0.0
2017-Oct-14 18:22N 37°58' W 000°41'0 0.0
2017-Oct-14 17:46N 37°58' W 000°41'0 0.0
2017-Oct-14 17:16N 37°58' W 000°41'0 0.0
2017-Oct-14 16:58N 37°58' W 000°41'0 0.0
2017-Oct-14 16:10N 37°58' W 000°41'0 0.0
2017-Oct-14 15:58N 37°58' W 000°41'0 0.0
2017-Oct-14 15:19N 37°58' W 000°41'0 0.0
2017-Oct-14 14:49N 37°58' W 000°41'0 0.0
2017-Oct-14 14:25N 37°58' W 000°41'0 0.0
2017-Oct-14 13:58N 37°58' W 000°41'0 0.8
2017-Oct-14 13:28N 37°58' W 000°41'  
2017-Oct-10 13:48N 39°24' E 002°34'1 4.6
2017-Oct-10 13:30N 39°24' E 002°35'1 3.0
2017-Oct-10 13:00N 39°25' E 002°36'3 5.8
2017-Oct-10 12:30N 39°28' E 002°35'3 5.8
2017-Oct-10 12:00N 39°31' E 002°34'3 5.8
2017-Oct-10 11:30N 39°31' E 002°38'2 3.2
2017-Oct-10 11:00N 39°33' E 002°39'1 0.1
2017-Oct-09 21:01N 39°34' E 002°38'0 0.0
2017-Oct-09 20:58N 39°34' E 002°38'0 0.0
2017-Oct-09 20:28N 39°34' E 002°38'0 0.0
2017-Oct-09 19:58N 39°34' E 002°38'0 0.0
2017-Oct-09 19:28N 39°34' E 002°38'0 0.0
2017-Oct-09 18:58N 39°34' E 002°38'0 0.0
2017-Oct-09 18:28N 39°34' E 002°38'0 0.0
2017-Oct-09 17:58N 39°34' E 002°38'0 0.0
2017-Oct-09 17:28N 39°34' E 002°38'0 0.0
2017-Oct-09 16:58N 39°34' E 002°38'0 0.0
2017-Oct-09 16:28N 39°34' E 002°38'0 0.0
2017-Oct-09 15:58N 39°34' E 002°38'0 0.0
2017-Oct-09 15:28N 39°34' E 002°38'0 0.0
2017-Oct-09 14:58N 39°34' E 002°38'0 0.0
2017-Oct-09 14:28N 39°34' E 002°38'0 0.0
2017-Oct-09 13:58N 39°34' E 002°38'0 0.0
2017-Oct-09 13:28N 39°34' E 002°38'0 0.0
2017-Oct-09 12:58N 39°34' E 002°38'0 0.0
2017-Oct-09 12:28N 39°34' E 002°38'0 0.0
2017-Oct-09 11:58N 39°34' E 002°38'0 0.0
2017-Oct-09 11:28N 39°34' E 002°38'0 0.0
2017-Oct-09 10:58N 39°34' E 002°38'0 0.0
2017-Oct-09 10:28N 39°34' E 002°38'0 0.0
2017-Oct-09 09:58N 39°34' E 002°38'0 0.0
2017-Oct-09 09:28N 39°34' E 002°38'0 0.0
2017-Oct-09 08:58N 39°34' E 002°38'0 0.0
2017-Oct-09 08:25N 39°34' E 002°38'0 0.0
2017-Oct-08 16:10N 39°34' E 002°38'0 0.3
2017-Oct-08 16:00N 39°34' E 002°38'1 0.5
2017-Oct-08 13:33N 39°34' E 002°40'0 0.0
2017-Oct-08 13:30N 39°34' E 002°40'0 0.0
2017-Oct-08 13:00N 39°34' E 002°40'0 0.0
2017-Oct-08 12:30N 39°34' E 002°40'0 0.0
2017-Oct-08 12:00N 39°34' E 002°40'0 0.0
2017-Oct-08 11:30N 39°34' E 002°39'3 5.0
2017-Oct-08 11:00N 39°32' E 002°37'3 7.1
2017-Oct-08 10:30N 39°29' E 002°34'3 0.2
2017-Oct-07 13:48N 39°27' E 002°32'2 7.5
2017-Oct-07 13:30N 39°27' E 002°34'1 2.5
2017-Oct-07 13:00N 39°27' E 002°36'2 4.2
2017-Oct-07 12:30N 39°29' E 002°37'3 5.2
2017-Oct-07 12:00N 39°32' E 002°38'2 4.0
2017-Oct-07 11:30N 39°34' E 002°38'0 0.6
2017-Oct-07 10:58N 39°34' E 002°38'0 0.0
2017-Oct-07 10:25N 39°34' E 002°38'0 0.0
2017-Oct-07 09:58N 39°34' E 002°38'  

Dump ship's entire track history